createdAt,value
2022-10-04T00:00:47.935Z,6.00
2022-10-04T00:01:48.010Z,6.10
2022-10-04T00:02:47.976Z,5.80
2022-10-04T00:03:47.907Z,5.70
2022-10-04T00:04:48.017Z,5.60
2022-10-04T00:05:47.880Z,6.00
2022-10-04T00:06:47.863Z,6.00
2022-10-04T00:07:47.899Z,6.00
2022-10-04T00:08:47.899Z,6.30
2022-10-04T00:09:47.834Z,5.50
2022-10-04T00:10:47.823Z,6.30
2022-10-04T00:11:47.823Z,5.70
2022-10-04T00:12:47.799Z,5.60
2022-10-04T00:13:47.831Z,5.60
2022-10-04T00:14:47.774Z,5.40
2022-10-04T00:15:47.790Z,5.50
2022-10-04T00:16:47.746Z,6.10
2022-10-04T00:17:47.745Z,5.80
2022-10-04T00:18:47.728Z,5.60
2022-10-04T00:19:47.763Z,6.00
2022-10-04T00:20:47.706Z,5.50
2022-10-04T00:21:47.696Z,6.10
2022-10-04T00:22:47.685Z,5.60
2022-10-04T00:23:47.681Z,5.50
2022-10-04T00:24:47.651Z,5.90
2022-10-04T00:25:47.716Z,5.80
2022-10-04T00:26:47.638Z,5.70
2022-10-04T00:27:47.858Z,6.00
2022-10-04T00:28:47.621Z,6.00
2022-10-04T00:29:47.613Z,5.70
2022-10-04T00:30:47.597Z,5.30
2022-10-04T00:31:48.067Z,5.70
2022-10-04T00:32:47.612Z,5.30
2022-10-04T00:33:47.565Z,5.60
2022-10-04T00:34:47.552Z,5.40
2022-10-04T00:35:47.537Z,5.80
2022-10-04T00:36:47.527Z,5.30
2022-10-04T00:37:47.564Z,5.40
2022-10-04T00:38:47.496Z,5.20
2022-10-04T00:39:47.492Z,5.50
2022-10-04T00:40:47.479Z,5.70
2022-10-04T00:41:47.467Z,5.80
2022-10-04T00:42:47.501Z,5.30
2022-10-04T00:43:47.498Z,5.60
2022-10-04T00:44:47.447Z,5.40
2022-10-04T00:45:47.514Z,5.70
2022-10-04T00:46:47.463Z,5.30
2022-10-04T00:47:47.401Z,5.40
2022-10-04T00:48:47.391Z,5.40
2022-10-04T00:49:47.417Z,5.70
2022-10-04T00:50:47.364Z,5.70
2022-10-04T00:51:47.359Z,5.30
2022-10-04T00:52:47.345Z,5.70
2022-10-04T00:53:47.332Z,5.20
2022-10-04T00:54:47.323Z,4.90
2022-10-04T00:55:47.351Z,5.20
2022-10-04T00:56:47.290Z,5.20
2022-10-04T00:57:47.284Z,4.80
2022-10-04T00:58:47.276Z,5.20
2022-10-04T00:59:47.268Z,5.00
2022-10-04T01:00:47.297Z,5.00
2022-10-04T01:01:47.309Z,4.90
2022-10-04T01:02:47.231Z,5.00
2022-10-04T01:03:47.224Z,5.30
2022-10-04T01:04:47.205Z,4.80
2022-10-04T01:05:47.206Z,4.40
2022-10-04T01:06:47.181Z,4.70
2022-10-04T01:07:47.227Z,4.70
2022-10-04T01:08:47.156Z,5.00
2022-10-04T01:09:47.154Z,4.70
2022-10-04T01:10:47.141Z,4.70
2022-10-04T01:11:47.144Z,4.50
2022-10-04T01:12:47.114Z,4.60
2022-10-04T01:13:47.149Z,4.20
2022-10-04T01:14:47.102Z,4.50
2022-10-04T01:15:47.126Z,4.50
2022-10-04T01:16:47.072Z,4.60
2022-10-04T01:17:47.069Z,4.90
2022-10-04T01:18:47.053Z,4.90
2022-10-04T01:19:47.071Z,4.50
2022-10-04T01:20:47.030Z,4.80
2022-10-04T01:21:47.031Z,4.60
2022-10-04T01:22:47.013Z,4.60
2022-10-04T01:23:47.004Z,4.50
2022-10-04T01:24:46.988Z,4.80
2022-10-04T01:25:47.010Z,4.20
2022-10-04T01:26:46.973Z,4.80
2022-10-04T01:27:46.964Z,4.70
2022-10-04T01:28:46.939Z,4.60
2022-10-04T01:29:46.935Z,5.40
2022-10-04T01:30:46.917Z,5.20
2022-10-04T01:31:47.014Z,5.10
2022-10-04T01:32:46.902Z,5.40
2022-10-04T01:33:46.876Z,5.20
2022-10-04T01:34:46.868Z,5.10
2022-10-04T01:35:46.861Z,5.70
2022-10-04T01:36:46.849Z,5.70
2022-10-04T01:37:46.989Z,5.90
2022-10-04T01:38:46.817Z,6.40
2022-10-04T01:39:47.373Z,6.30
2022-10-04T01:40:47.267Z,6.40
2022-10-04T01:41:47.356Z,6.60
2022-10-04T01:42:46.776Z,6.90
2022-10-04T01:43:46.802Z,6.70
2022-10-04T01:44:46.754Z,7.00
2022-10-04T01:45:46.754Z,6.30
2022-10-04T01:46:46.824Z,7.10
2022-10-04T01:47:46.718Z,7.40
2022-10-04T01:48:46.706Z,7.20
2022-10-04T01:49:46.739Z,6.80
2022-10-04T01:50:46.694Z,6.70
2022-10-04T01:51:46.695Z,7.40
2022-10-04T01:52:46.664Z,7.40
2022-10-04T01:53:46.651Z,7.10
2022-10-04T01:54:46.635Z,7.60
2022-10-04T01:55:46.685Z,7.70
2022-10-04T01:56:46.623Z,7.60
2022-10-04T01:57:46.610Z,7.80
2022-10-04T01:58:46.595Z,7.30
2022-10-04T01:59:46.586Z,7.00
2022-10-04T02:00:46.696Z,7.50
2022-10-04T02:01:46.849Z,7.90
2022-10-04T02:02:46.552Z,8.20
2022-10-04T02:03:46.574Z,8.20
2022-10-04T02:04:46.555Z,7.40
2022-10-04T02:05:46.523Z,7.50
2022-10-04T02:06:46.500Z,7.50
2022-10-04T02:07:46.537Z,6.90
2022-10-04T02:08:46.481Z,7.20
2022-10-04T02:09:46.473Z,8.10
2022-10-04T02:10:46.459Z,8.70
2022-10-04T02:11:46.455Z,8.60
2022-10-04T02:12:46.436Z,8.30
2022-10-04T02:13:46.475Z,8.80
2022-10-04T02:14:46.414Z,8.50
2022-10-04T02:15:46.421Z,8.40
2022-10-04T02:16:46.393Z,8.50
2022-10-04T02:17:46.384Z,8.40
2022-10-04T02:18:46.363Z,8.80
2022-10-04T02:19:46.394Z,8.80
2022-10-04T02:20:46.355Z,8.90
2022-10-04T02:21:46.327Z,8.10
2022-10-04T02:22:46.327Z,8.80
2022-10-04T02:23:46.309Z,8.10
2022-10-04T02:24:46.305Z,8.50
2022-10-04T02:25:46.337Z,8.50
2022-10-04T02:26:46.288Z,8.60
2022-10-04T02:27:46.259Z,8.50
2022-10-04T02:28:46.258Z,9.00
2022-10-04T02:29:46.236Z,8.50
2022-10-04T02:30:46.234Z,9.00
2022-10-04T02:31:46.544Z,8.80
2022-10-04T02:32:46.220Z,8.50
2022-10-04T02:33:46.199Z,8.60
2022-10-04T02:34:46.196Z,8.30
2022-10-04T02:35:46.179Z,7.90
2022-10-04T02:36:46.182Z,7.60
2022-10-04T02:37:46.194Z,7.10
2022-10-04T02:38:46.149Z,8.00
2022-10-04T02:39:46.132Z,7.90
2022-10-04T02:40:46.130Z,7.40
2022-10-04T02:41:46.113Z,7.10
2022-10-04T02:42:46.097Z,7.60
2022-10-04T02:43:46.541Z,7.30
2022-10-04T02:44:46.080Z,7.50
2022-10-04T02:45:46.063Z,8.10
2022-10-04T02:46:46.103Z,8.00
2022-10-04T02:47:46.043Z,7.60
2022-10-04T02:48:46.027Z,7.80
2022-10-04T02:49:46.055Z,7.80
2022-10-04T02:50:46.012Z,7.50
2022-10-04T02:51:46.035Z,8.20
2022-10-04T02:52:45.983Z,7.40
2022-10-04T02:53:45.970Z,8.30
2022-10-04T02:54:45.963Z,8.00
2022-10-04T02:55:46.000Z,7.10
2022-10-04T02:56:45.935Z,7.60
2022-10-04T02:57:45.926Z,7.80
2022-10-04T02:58:45.967Z,7.40
2022-10-04T02:59:45.904Z,7.00
2022-10-04T03:00:45.927Z,7.80
2022-10-04T03:01:46.174Z,7.40
2022-10-04T03:02:45.890Z,7.40
2022-10-04T03:03:45.863Z,7.10
2022-10-04T03:04:45.850Z,7.30
2022-10-04T03:05:45.839Z,7.00
2022-10-04T03:06:45.839Z,7.40
2022-10-04T03:07:45.859Z,7.20
2022-10-04T03:08:45.812Z,6.80
2022-10-04T03:09:45.790Z,7.40
2022-10-04T03:10:45.777Z,7.20
2022-10-04T03:11:45.769Z,6.90
2022-10-04T03:12:45.757Z,6.80
2022-10-04T03:13:45.787Z,7.20
2022-10-04T03:14:45.738Z,6.80
2022-10-04T03:15:45.777Z,7.50
2022-10-04T03:16:45.709Z,7.20
2022-10-04T03:17:45.697Z,6.90
2022-10-04T03:18:45.689Z,7.70
2022-10-04T03:19:45.726Z,7.70
2022-10-04T03:20:45.671Z,7.20
2022-10-04T03:21:45.663Z,7.20
2022-10-04T03:22:47.164Z,7.10
2022-10-04T03:23:45.631Z,6.80
2022-10-04T03:24:45.625Z,6.80
2022-10-04T03:25:45.673Z,6.70
2022-10-04T03:26:45.604Z,6.80
2022-10-04T03:27:45.589Z,6.90
2022-10-04T03:28:45.579Z,6.80
2022-10-04T03:29:45.563Z,6.60
2022-10-04T03:30:45.555Z,7.20
2022-10-04T03:31:45.968Z,6.60
2022-10-04T03:32:45.542Z,5.90
2022-10-04T03:33:45.516Z,6.30
2022-10-04T03:34:45.520Z,6.90
2022-10-04T03:35:45.496Z,6.60
2022-10-04T03:36:45.492Z,6.60
2022-10-04T03:37:45.513Z,6.20
2022-10-04T03:38:45.469Z,6.10
2022-10-04T03:39:45.458Z,6.60
2022-10-04T03:40:45.443Z,6.10
2022-10-04T03:41:45.428Z,6.00
2022-10-04T03:42:45.415Z,6.70
2022-10-04T03:43:45.454Z,7.10
2022-10-04T03:44:45.397Z,6.90
2022-10-04T03:45:45.440Z,6.90
2022-10-04T03:46:45.373Z,6.70
2022-10-04T03:47:45.358Z,7.10
2022-10-04T03:48:45.354Z,7.60
2022-10-04T03:49:50.545Z,7.70
2022-10-04T03:50:45.336Z,7.40
2022-10-04T03:51:45.313Z,7.90
2022-10-04T03:52:45.306Z,7.70
2022-10-04T03:53:45.293Z,7.40
2022-10-04T03:54:45.294Z,7.50
2022-10-04T03:55:45.312Z,7.40
2022-10-04T03:56:45.255Z,7.80
2022-10-04T03:57:45.254Z,8.10
2022-10-04T03:58:45.243Z,8.10
2022-10-04T03:59:45.230Z,8.10
2022-10-04T04:00:45.232Z,8.70
2022-10-04T04:01:45.573Z,8.80
2022-10-04T04:02:46.337Z,8.30
2022-10-04T04:03:45.169Z,8.60
2022-10-04T04:04:45.170Z,8.60
2022-10-04T04:05:45.160Z,8.50
2022-10-04T04:06:45.156Z,9.30
2022-10-04T04:07:45.166Z,9.60
2022-10-04T04:08:45.128Z,9.40
2022-10-04T04:09:45.110Z,10.00
2022-10-04T04:10:45.104Z,9.40
2022-10-04T04:11:45.090Z,10.10
2022-10-04T04:12:45.086Z,9.70
2022-10-04T04:13:45.120Z,10.10
2022-10-04T04:14:45.059Z,9.40
2022-10-04T04:15:45.047Z,10.20
2022-10-04T04:16:45.058Z,10.50
2022-10-04T04:17:45.018Z,10.20
2022-10-04T04:18:45.026Z,11.00
2022-10-04T04:19:45.038Z,11.20
2022-10-04T04:20:45.026Z,11.10
2022-10-04T04:21:44.983Z,11.40
2022-10-04T04:22:44.982Z,11.50
2022-10-04T04:23:44.956Z,11.80
2022-10-04T04:24:44.994Z,11.90
2022-10-04T04:25:44.963Z,11.70
2022-10-04T04:26:44.922Z,11.80
2022-10-04T04:27:44.914Z,12.10
2022-10-04T04:28:44.903Z,11.80
2022-10-04T04:29:44.880Z,12.70
2022-10-04T04:30:44.882Z,13.30
2022-10-04T04:31:45.326Z,12.80
2022-10-04T04:32:44.855Z,12.50
2022-10-04T04:33:44.841Z,12.80
2022-10-04T04:34:44.857Z,13.00
2022-10-04T04:35:44.826Z,13.50
2022-10-04T04:36:44.813Z,13.80
2022-10-04T04:37:44.840Z,13.50
2022-10-04T04:38:44.784Z,13.10
2022-10-04T04:39:44.788Z,13.80
2022-10-04T04:40:44.772Z,13.90
2022-10-04T04:41:50.187Z,14.10
2022-10-04T04:42:45.058Z,14.50
2022-10-04T04:43:44.766Z,14.50
2022-10-04T04:44:44.718Z,14.70
2022-10-04T04:45:44.727Z,14.40
2022-10-04T04:46:44.776Z,14.10
2022-10-04T04:47:44.683Z,14.10
2022-10-04T04:48:44.687Z,14.10
2022-10-04T04:49:45.056Z,15.10
2022-10-04T04:50:44.656Z,14.90
2022-10-04T04:51:44.637Z,14.90
2022-10-04T04:52:44.626Z,13.80
2022-10-04T04:53:44.602Z,14.00
2022-10-04T04:54:44.658Z,13.90
2022-10-04T04:56:02.832Z,14.40
2022-10-04T04:56:44.597Z,14.90
2022-10-04T04:57:44.623Z,14.00
2022-10-04T04:58:44.576Z,14.90
2022-10-04T04:59:44.550Z,15.00
2022-10-04T05:00:44.567Z,15.30
2022-10-04T05:01:45.006Z,14.80
2022-10-04T05:02:44.518Z,14.80
2022-10-04T05:03:44.514Z,15.20
2022-10-04T05:04:44.501Z,15.90
2022-10-04T05:05:44.484Z,16.00
2022-10-04T05:06:44.479Z,16.20
2022-10-04T05:07:44.500Z,15.90
2022-10-04T05:08:44.451Z,14.90
2022-10-04T05:09:44.430Z,15.80
2022-10-04T05:10:44.428Z,15.90
2022-10-04T05:11:44.641Z,15.30
2022-10-04T05:12:44.459Z,16.00
2022-10-04T05:13:44.468Z,16.00
2022-10-04T05:14:44.379Z,16.60
2022-10-04T05:15:44.366Z,17.50
2022-10-04T05:16:44.429Z,17.60
2022-10-04T05:17:44.364Z,17.20
2022-10-04T05:18:44.338Z,17.30
2022-10-04T05:19:44.444Z,18.20
2022-10-04T05:20:45.154Z,17.20
2022-10-04T05:21:44.531Z,17.10
2022-10-04T05:22:44.304Z,18.60
2022-10-04T05:23:44.279Z,18.60
2022-10-04T05:24:44.324Z,18.50
2022-10-04T05:25:44.297Z,19.10
2022-10-04T05:26:44.249Z,19.50
2022-10-04T05:27:45.085Z,19.50
2022-10-04T05:28:44.260Z,20.30
2022-10-04T05:29:50.227Z,21.40
2022-10-04T05:30:50.266Z,21.70
2022-10-04T05:31:50.543Z,20.70
2022-10-04T05:32:44.194Z,21.10
2022-10-04T05:33:44.221Z,21.30
2022-10-04T05:34:44.242Z,21.40
2022-10-04T05:35:44.146Z,20.70
2022-10-04T05:36:44.187Z,21.10
2022-10-04T05:37:44.266Z,20.60
2022-10-04T05:38:45.352Z,21.00
2022-10-04T05:39:44.098Z,20.90
2022-10-04T05:40:44.621Z,21.00
2022-10-04T05:41:44.300Z,20.00
2022-10-04T05:42:44.460Z,20.20
2022-10-04T05:43:44.051Z,20.40
2022-10-04T05:44:44.052Z,20.50
2022-10-04T05:45:44.090Z,20.40
2022-10-04T05:46:44.237Z,20.50
2022-10-04T05:47:44.005Z,20.80
2022-10-04T05:48:44.314Z,21.40
2022-10-04T05:49:44.027Z,21.30
2022-10-04T05:50:43.995Z,21.10
2022-10-04T05:51:44.299Z,20.90
2022-10-04T05:52:43.951Z,21.20
2022-10-04T05:53:43.945Z,21.50
2022-10-04T05:54:44.316Z,22.10
2022-10-04T05:55:43.918Z,22.30
2022-10-04T05:56:43.915Z,22.10
2022-10-04T05:57:43.898Z,21.30
2022-10-04T05:58:44.019Z,22.60
2022-10-04T05:59:43.878Z,21.10
2022-10-04T06:00:43.905Z,21.80
2022-10-04T06:01:44.243Z,21.30
2022-10-04T06:02:43.929Z,21.00
2022-10-04T06:03:43.835Z,21.40
2022-10-04T06:04:43.842Z,20.80
2022-10-04T06:05:43.812Z,21.20
2022-10-04T06:06:43.905Z,20.80
2022-10-04T06:07:43.837Z,22.00
2022-10-04T06:08:43.782Z,20.50
2022-10-04T06:09:43.773Z,22.20
2022-10-04T06:10:43.761Z,21.10
2022-10-04T06:11:44.043Z,22.00
2022-10-04T06:12:44.643Z,21.10
2022-10-04T06:13:43.789Z,21.30
2022-10-04T06:14:43.859Z,21.30
2022-10-04T06:15:43.699Z,21.40
2022-10-04T06:16:43.743Z,20.60
2022-10-04T06:17:43.799Z,20.90
2022-10-04T06:18:44.260Z,20.10
2022-10-04T06:19:43.664Z,21.00
2022-10-04T06:20:43.649Z,20.70
2022-10-04T06:21:44.028Z,20.10
2022-10-04T06:22:43.624Z,19.80
2022-10-04T06:23:43.616Z,19.90
2022-10-04T06:24:43.656Z,20.10
2022-10-04T06:25:43.615Z,19.90
2022-10-04T06:26:43.633Z,19.70
2022-10-04T06:27:43.563Z,19.90
2022-10-04T06:28:43.614Z,19.90
2022-10-04T06:29:43.576Z,18.90
2022-10-04T06:30:43.608Z,19.50
2022-10-04T06:31:43.806Z,19.40
2022-10-04T06:32:43.505Z,19.10
2022-10-04T06:33:43.746Z,19.30
2022-10-04T06:34:43.563Z,19.70
2022-10-04T06:35:43.541Z,19.20
2022-10-04T06:36:43.503Z,18.60
2022-10-04T06:37:43.472Z,19.20
2022-10-04T06:38:43.454Z,17.90
2022-10-04T06:39:44.195Z,18.90
2022-10-04T06:40:44.191Z,18.10
2022-10-04T06:41:43.621Z,18.30
2022-10-04T06:42:43.445Z,18.80
2022-10-04T06:43:43.385Z,18.10
2022-10-04T06:44:46.414Z,17.70
2022-10-04T06:45:43.397Z,17.80
2022-10-04T06:46:43.363Z,18.00
2022-10-04T06:47:43.358Z,16.70
2022-10-04T06:48:43.382Z,17.00
2022-10-04T06:49:43.962Z,16.60
2022-10-04T06:50:43.322Z,16.80
2022-10-04T06:51:43.645Z,17.20
2022-10-04T06:52:43.325Z,16.10
2022-10-04T06:53:43.284Z,16.20
2022-10-04T06:54:44.258Z,16.40
2022-10-04T06:55:43.259Z,16.00
2022-10-04T06:56:43.257Z,16.00
2022-10-04T06:57:43.237Z,16.60
2022-10-04T06:58:43.216Z,16.60
2022-10-04T06:59:43.219Z,15.90
2022-10-04T07:00:43.269Z,17.60
2022-10-04T07:01:43.594Z,16.10
2022-10-04T07:02:43.270Z,15.90
2022-10-04T07:03:44.032Z,16.30
2022-10-04T07:05:06.892Z,16.30
2022-10-04T07:05:43.147Z,15.60
2022-10-04T07:06:43.274Z,15.30
2022-10-04T07:07:43.125Z,15.60
2022-10-04T07:08:43.122Z,15.20
2022-10-04T07:09:43.118Z,14.80
2022-10-04T07:10:43.115Z,14.90
2022-10-04T07:11:43.424Z,15.30
2022-10-04T07:12:43.110Z,14.20
2022-10-04T07:13:43.225Z,13.30
2022-10-04T07:14:43.039Z,14.00
2022-10-04T07:15:43.188Z,14.40
2022-10-04T07:16:43.071Z,14.30
2022-10-04T07:17:43.017Z,13.30
2022-10-04T07:18:43.250Z,13.60
2022-10-04T07:19:43.029Z,14.10
2022-10-04T07:20:42.982Z,13.90
2022-10-04T07:21:46.203Z,13.90
2022-10-04T07:22:43.104Z,14.10
2022-10-04T07:23:42.953Z,14.30
2022-10-04T07:24:42.988Z,14.50
2022-10-04T07:25:44.098Z,15.00
2022-10-04T07:26:42.915Z,15.90
2022-10-04T07:27:43.691Z,16.00
2022-10-04T07:28:42.879Z,16.10
2022-10-04T07:29:42.871Z,15.10
2022-10-04T07:30:42.999Z,15.80
2022-10-04T07:31:43.292Z,16.00
2022-10-04T07:32:42.835Z,16.10
2022-10-04T07:33:42.840Z,16.00
2022-10-04T07:34:42.811Z,15.70
2022-10-04T07:35:42.877Z,16.60
2022-10-04T07:36:43.166Z,15.80
2022-10-04T07:37:42.873Z,17.10
2022-10-04T07:38:42.780Z,16.00
2022-10-04T07:39:42.760Z,15.80
2022-10-04T07:40:42.878Z,16.90
2022-10-04T07:41:43.124Z,16.40
2022-10-04T07:42:42.836Z,16.50
2022-10-04T07:43:42.781Z,16.90
2022-10-04T07:44:42.777Z,17.00
2022-10-04T07:45:42.798Z,15.40
2022-10-04T07:46:42.739Z,15.20
2022-10-04T07:47:42.797Z,16.00
2022-10-04T07:48:42.732Z,16.90
2022-10-04T07:49:42.754Z,16.20
2022-10-04T07:50:42.689Z,15.90
2022-10-04T07:51:42.944Z,16.20
2022-10-04T07:52:42.673Z,16.40
2022-10-04T07:53:42.741Z,15.90
2022-10-04T07:54:43.321Z,15.40
2022-10-04T07:55:42.622Z,14.80
2022-10-04T07:56:42.948Z,14.90
2022-10-04T07:57:42.762Z,15.20
2022-10-04T07:58:45.752Z,15.20
2022-10-04T07:59:42.572Z,15.70
2022-10-04T08:00:43.444Z,15.70
2022-10-04T08:01:43.013Z,15.10
2022-10-04T08:02:43.654Z,15.10
2022-10-04T08:03:44.370Z,15.80
2022-10-04T08:04:42.501Z,15.20
2022-10-04T08:05:42.471Z,15.70
2022-10-04T08:06:44.190Z,16.10
2022-10-04T08:07:43.047Z,15.50
2022-10-04T08:08:42.572Z,15.10
2022-10-04T08:09:42.422Z,15.30
2022-10-04T08:10:42.592Z,14.40
2022-10-04T08:11:42.626Z,13.80
2022-10-04T08:12:42.487Z,13.30
2022-10-04T08:13:42.453Z,13.00
2022-10-04T08:14:42.399Z,13.20
2022-10-04T08:15:42.561Z,12.60
2022-10-04T08:16:42.725Z,12.80
2022-10-04T08:17:42.428Z,13.20
2022-10-04T08:18:42.408Z,12.60
2022-10-04T08:19:42.421Z,12.40
2022-10-04T08:20:42.314Z,12.00
2022-10-04T08:21:42.361Z,11.30
2022-10-04T08:22:42.313Z,11.80
2022-10-04T08:23:42.354Z,11.40
2022-10-04T08:24:42.774Z,11.00
2022-10-04T08:25:42.290Z,10.60
2022-10-04T08:26:42.606Z,11.60
2022-10-04T08:27:42.323Z,11.00
2022-10-04T08:28:43.793Z,11.10
2022-10-04T08:29:42.417Z,10.60
2022-10-04T08:30:42.321Z,10.70
2022-10-04T08:31:42.286Z,10.70
2022-10-04T08:32:42.318Z,10.10
2022-10-04T08:33:42.166Z,10.80
2022-10-04T08:34:42.156Z,10.10
2022-10-04T08:35:42.127Z,10.30
2022-10-04T08:36:42.442Z,9.90
2022-10-04T08:37:42.785Z,9.60
2022-10-04T08:38:42.127Z,9.70
2022-10-04T08:39:42.187Z,9.30
2022-10-04T08:40:42.090Z,9.00
2022-10-04T08:41:42.058Z,9.10
2022-10-04T08:42:42.109Z,8.90
2022-10-04T08:43:42.155Z,9.10
2022-10-04T08:44:42.088Z,8.60
2022-10-04T08:45:42.226Z,8.80
2022-10-04T08:46:42.628Z,9.10
2022-10-04T08:47:42.201Z,8.90
2022-10-04T08:48:42.285Z,8.50
2022-10-04T08:49:41.987Z,8.20
2022-10-04T08:50:42.564Z,7.30
2022-10-04T08:51:41.963Z,7.80
2022-10-04T08:52:42.618Z,7.70
2022-10-04T08:53:41.977Z,7.20
2022-10-04T08:54:42.034Z,7.60
2022-10-04T08:55:42.073Z,7.80
2022-10-04T08:56:42.222Z,7.80
2022-10-04T08:57:41.880Z,6.30
2022-10-04T08:58:41.878Z,6.20
2022-10-04T08:59:41.910Z,6.60
2022-10-04T09:00:42.722Z,5.60
2022-10-04T09:01:41.969Z,5.60
2022-10-04T09:02:41.962Z,5.70
2022-10-04T09:03:42.247Z,5.90
2022-10-04T09:04:41.875Z,5.60
2022-10-04T09:05:41.815Z,5.40
2022-10-04T09:06:42.223Z,5.40
2022-10-04T09:07:41.925Z,6.30
2022-10-04T09:08:41.916Z,5.90
2022-10-04T09:09:41.766Z,6.20
2022-10-04T09:10:41.745Z,6.10
2022-10-04T09:11:41.746Z,5.50
2022-10-04T09:12:41.815Z,5.20
2022-10-04T09:13:41.720Z,6.00
2022-10-04T09:14:41.733Z,6.10
2022-10-04T09:15:41.779Z,6.00
2022-10-04T09:16:42.088Z,5.50
2022-10-04T09:17:42.189Z,5.50
2022-10-04T09:18:41.716Z,6.00
2022-10-04T09:19:41.937Z,5.50
2022-10-04T09:20:41.626Z,6.00
2022-10-04T09:21:41.615Z,5.80
2022-10-04T09:22:41.604Z,5.60
2022-10-04T09:23:41.583Z,5.10
2022-10-04T09:24:41.608Z,5.60
2022-10-04T09:25:41.588Z,5.60
2022-10-04T09:26:41.871Z,6.00
2022-10-04T09:27:56.727Z,5.40
2022-10-04T09:28:41.612Z,5.40
2022-10-04T09:29:41.525Z,5.60
2022-10-04T09:30:41.654Z,5.60
2022-10-04T09:31:41.590Z,5.30
2022-10-04T09:32:41.506Z,5.80
2022-10-04T09:33:41.524Z,5.80
2022-10-04T09:34:41.486Z,5.30
2022-10-04T09:35:41.491Z,5.70
2022-10-04T09:36:42.086Z,5.80
2022-10-04T09:37:41.465Z,6.00
2022-10-04T09:38:41.506Z,5.40
2022-10-04T09:39:41.480Z,5.90
2022-10-04T09:40:44.285Z,6.10
2022-10-04T09:41:41.523Z,6.00
2022-10-04T09:42:41.503Z,5.90
2022-10-04T09:43:41.560Z,6.10
2022-10-04T09:44:41.399Z,6.40
2022-10-04T09:45:41.424Z,6.00
2022-10-04T09:46:41.801Z,6.10
2022-10-04T09:47:41.360Z,5.60
2022-10-04T09:48:41.366Z,5.90
2022-10-04T09:49:41.336Z,5.80
2022-10-04T09:50:41.405Z,5.80
2022-10-04T09:51:41.338Z,5.70
2022-10-04T09:52:41.336Z,5.90
2022-10-04T09:53:41.320Z,6.20
2022-10-04T09:54:44.444Z,6.20
2022-10-04T09:55:41.406Z,5.60
2022-10-04T09:56:43.132Z,5.90
2022-10-04T09:57:41.243Z,5.40
2022-10-04T09:58:41.607Z,5.20
2022-10-04T09:59:41.195Z,5.60
2022-10-04T10:00:41.392Z,5.60
2022-10-04T10:01:42.329Z,5.50
2022-10-04T10:02:41.358Z,5.40
2022-10-04T10:03:42.141Z,5.60
2022-10-04T10:04:41.246Z,4.50
2022-10-04T10:05:41.155Z,5.00
2022-10-04T10:06:41.753Z,5.10
2022-10-04T10:07:41.199Z,4.90
2022-10-04T10:08:41.205Z,5.00
2022-10-04T10:09:41.094Z,5.20
2022-10-04T10:10:41.081Z,4.70
2022-10-04T10:11:41.407Z,4.50
2022-10-04T10:12:41.194Z,4.00
2022-10-04T10:13:41.073Z,3.70
2022-10-04T10:14:42.042Z,3.30
2022-10-04T10:15:41.479Z,3.50
2022-10-04T10:16:41.503Z,3.60
2022-10-04T10:17:41.015Z,3.30
2022-10-04T10:18:41.105Z,3.20
2022-10-04T10:19:41.148Z,3.30
2022-10-04T10:20:41.078Z,2.90
2022-10-04T10:21:41.204Z,2.90
2022-10-04T10:22:40.942Z,3.00
2022-10-04T10:23:40.998Z,2.70
2022-10-04T10:24:41.023Z,3.30
2022-10-04T10:25:40.991Z,2.80
2022-10-04T10:26:41.388Z,3.00
2022-10-04T10:27:40.930Z,3.00
2022-10-04T10:28:40.903Z,3.10
2022-10-04T10:29:40.873Z,3.10
2022-10-04T10:30:40.940Z,3.20
2022-10-04T10:31:44.571Z,3.40
2022-10-04T10:32:40.856Z,2.80
2022-10-04T10:33:40.871Z,3.00
2022-10-04T10:34:40.853Z,3.10
2022-10-04T10:35:40.824Z,3.30
2022-10-04T10:36:40.881Z,3.40
2022-10-04T10:37:40.783Z,3.50
2022-10-04T10:38:40.883Z,3.20
2022-10-04T10:39:40.741Z,3.00
2022-10-04T10:40:40.720Z,3.20
2022-10-04T10:41:40.721Z,3.50
2022-10-04T10:42:40.765Z,3.40
2022-10-04T10:43:40.718Z,3.40
2022-10-04T10:44:41.683Z,3.60
2022-10-04T10:45:40.743Z,3.60
2022-10-04T10:46:40.711Z,3.50
2022-10-04T10:47:40.659Z,3.10
2022-10-04T10:48:40.670Z,3.70
2022-10-04T10:49:41.346Z,3.20
2022-10-04T10:50:40.645Z,3.10
2022-10-04T10:51:42.350Z,3.20
2022-10-04T10:52:40.627Z,3.10
2022-10-04T10:53:40.578Z,3.30
2022-10-04T10:54:40.774Z,3.70
2022-10-04T10:55:40.627Z,3.20
2022-10-04T10:56:40.606Z,3.10
2022-10-04T10:57:42.579Z,3.40
2022-10-04T10:58:40.595Z,3.20
2022-10-04T10:59:40.547Z,3.60
2022-10-04T11:00:40.577Z,3.50
2022-10-04T11:01:40.600Z,3.10
2022-10-04T11:02:49.871Z,3.40
2022-10-04T11:03:40.571Z,3.10
2022-10-04T11:04:40.479Z,3.30
2022-10-04T11:05:40.575Z,3.30
2022-10-04T11:06:40.510Z,3.30
2022-10-04T11:07:40.505Z,3.90
2022-10-04T11:08:40.428Z,3.10
2022-10-04T11:09:40.686Z,2.70
2022-10-04T11:10:40.448Z,3.00
2022-10-04T11:11:40.389Z,2.60
2022-10-04T11:12:40.455Z,2.70
2022-10-04T11:13:40.364Z,3.20
2022-10-04T11:14:40.383Z,2.50
2022-10-04T11:15:40.411Z,2.40
2022-10-04T11:16:40.349Z,2.60
2022-10-04T11:17:40.300Z,2.30
2022-10-04T11:18:40.349Z,2.70
2022-10-04T11:19:40.282Z,2.60
2022-10-04T11:20:40.339Z,2.30
2022-10-04T11:21:40.307Z,2.50
2022-10-04T11:22:40.317Z,3.20
2022-10-04T11:23:40.282Z,2.70
2022-10-04T11:24:40.339Z,2.90
2022-10-04T11:25:40.217Z,3.00
2022-10-04T11:26:40.220Z,3.20
2022-10-04T11:27:40.199Z,3.10
2022-10-04T11:28:40.258Z,2.90
2022-10-04T11:29:40.203Z,3.10
2022-10-04T11:30:40.290Z,3.00
2022-10-04T11:31:40.196Z,3.50
2022-10-04T11:32:40.165Z,3.30
2022-10-04T11:33:40.150Z,3.60
2022-10-04T11:34:40.130Z,3.30
2022-10-04T11:35:40.117Z,2.70
2022-10-04T11:36:40.193Z,3.30
2022-10-04T11:37:40.084Z,3.10
2022-10-04T11:38:40.071Z,3.30
2022-10-04T11:39:43.713Z,3.00
2022-10-04T11:40:40.747Z,3.30
2022-10-04T11:41:40.098Z,3.00
2022-10-04T11:42:40.098Z,3.40
2022-10-04T11:43:40.021Z,3.20
2022-10-04T11:44:40.012Z,3.20
2022-10-04T11:45:40.018Z,3.40
2022-10-04T11:46:40.058Z,3.40
2022-10-04T11:47:39.994Z,2.90
2022-10-04T11:48:41.582Z,3.30
2022-10-04T11:49:39.967Z,3.10
2022-10-04T11:50:39.964Z,3.40
2022-10-04T11:51:39.927Z,3.20
2022-10-04T11:52:39.944Z,2.90
2022-10-04T11:53:39.927Z,2.90
2022-10-04T11:54:40.021Z,3.10
2022-10-04T11:55:39.903Z,3.00
2022-10-04T11:56:39.929Z,3.30
2022-10-04T11:57:39.888Z,2.90
2022-10-04T11:58:39.910Z,3.00
2022-10-04T11:59:39.839Z,3.10
2022-10-04T12:00:39.878Z,3.10
2022-10-04T12:01:39.868Z,3.40
2022-10-04T12:02:40.169Z,3.30
2022-10-04T12:03:39.838Z,3.20
2022-10-04T12:04:40.954Z,3.50
2022-10-04T12:05:39.838Z,3.60
2022-10-04T12:06:39.825Z,2.80
2022-10-04T12:07:39.759Z,3.20
2022-10-04T12:08:39.754Z,3.70
2022-10-04T12:09:39.728Z,3.40
2022-10-04T12:10:39.775Z,2.90
2022-10-04T12:11:39.769Z,3.20
2022-10-04T12:12:39.813Z,3.30
2022-10-04T12:13:39.719Z,3.40
2022-10-04T12:14:39.712Z,3.30
2022-10-04T12:15:39.866Z,3.30
2022-10-04T12:16:39.695Z,3.00
2022-10-04T12:17:39.648Z,2.70
2022-10-04T12:18:39.674Z,2.70
2022-10-04T12:19:40.192Z,3.10
2022-10-04T12:20:39.614Z,3.20
2022-10-04T12:21:39.879Z,3.30
2022-10-04T12:22:39.617Z,2.70
2022-10-04T12:23:39.635Z,3.10
2022-10-04T12:24:39.643Z,2.80
2022-10-04T12:25:39.562Z,3.40
2022-10-04T12:26:39.585Z,3.10
2022-10-04T12:27:39.519Z,2.80
2022-10-04T12:28:39.562Z,2.60
2022-10-04T12:29:45.706Z,3.00
2022-10-04T12:30:39.485Z,2.90
2022-10-04T12:31:39.592Z,3.20
2022-10-04T12:32:39.471Z,3.30
2022-10-04T12:33:40.256Z,3.10
2022-10-04T12:34:39.445Z,3.10
2022-10-04T12:35:39.600Z,3.10
2022-10-04T12:36:39.433Z,3.50
2022-10-04T12:37:39.421Z,2.70
2022-10-04T12:38:39.429Z,3.00
2022-10-04T12:39:39.387Z,3.20
2022-10-04T12:40:39.408Z,2.90
2022-10-04T12:41:39.426Z,3.10
2022-10-04T12:42:39.366Z,3.20
2022-10-04T12:43:39.387Z,3.10
2022-10-04T12:44:39.342Z,3.20
2022-10-04T12:45:39.399Z,3.00
2022-10-04T12:46:39.350Z,2.80
2022-10-04T12:47:39.444Z,2.90
2022-10-04T12:48:41.287Z,3.30
2022-10-04T12:49:39.287Z,2.90
2022-10-04T12:50:39.278Z,3.20
2022-10-04T12:51:39.249Z,3.20
2022-10-04T12:52:39.259Z,3.10
2022-10-04T12:53:39.296Z,3.00
2022-10-04T12:54:39.226Z,2.90
2022-10-04T12:55:39.236Z,3.00
2022-10-04T12:56:39.248Z,3.00
2022-10-04T12:57:39.310Z,2.90
2022-10-04T12:58:39.362Z,2.90
2022-10-04T12:59:39.306Z,3.30
2022-10-04T13:00:39.197Z,3.10
2022-10-04T13:01:39.347Z,2.80
2022-10-04T13:02:39.205Z,3.40
2022-10-04T13:03:39.394Z,2.80
2022-10-04T13:04:39.270Z,3.30
2022-10-04T13:05:39.561Z,3.00
2022-10-04T13:06:43.433Z,3.20
2022-10-04T13:07:39.388Z,3.00
2022-10-04T13:08:39.446Z,3.30
2022-10-04T13:09:39.441Z,2.70